createdAt,value
2022-10-15T00:00:24.951Z,63.28
2022-10-15T00:02:51.933Z,68.38
2022-10-15T00:05:19.089Z,60.05
2022-10-15T00:07:46.047Z,63.85
2022-10-15T00:10:13.245Z,54.78
2022-10-15T00:12:41.443Z,66.40
2022-10-15T00:15:10.123Z,61.45
2022-10-15T00:17:37.909Z,60.03
2022-10-15T00:20:08.600Z,55.47
2022-10-15T00:22:36.035Z,59.78
2022-10-15T00:25:03.192Z,59.90
2022-10-15T00:27:30.141Z,57.05
2022-10-15T00:29:57.229Z,69.35
2022-10-15T00:32:24.503Z,61.15
2022-10-15T00:34:51.663Z,73.63
2022-10-15T00:37:18.704Z,59.65
2022-10-15T00:39:45.743Z,62.47
2022-10-15T00:42:13.092Z,73.13
2022-10-15T00:44:50.691Z,60.00
2022-10-15T00:47:26.697Z,57.72
2022-10-15T00:49:56.958Z,74.72
2022-10-15T00:52:30.466Z,64.22
2022-10-15T00:55:06.373Z,59.70
2022-10-15T00:57:34.340Z,76.40
2022-10-15T01:00:06.598Z,76.70
2022-10-15T01:02:33.999Z,77.32
2022-10-15T01:05:01.462Z,59.38
2022-10-15T01:07:28.566Z,55.15
2022-10-15T01:09:55.651Z,67.35
2022-10-15T01:12:26.059Z,60.30
2022-10-15T01:15:31.979Z,78.28
2022-10-15T01:18:16.147Z,56.05
2022-10-15T01:21:08.672Z,67.95
2022-10-15T01:23:52.470Z,48.53
2022-10-15T01:26:30.258Z,60.45
2022-10-15T01:29:22.169Z,54.83
2022-10-15T01:32:09.035Z,47.30
2022-10-15T01:34:51.363Z,62.50
2022-10-15T01:37:24.479Z,48.20
2022-10-15T01:39:56.450Z,59.17
2022-10-15T01:42:31.451Z,49.60
2022-10-15T01:45:04.130Z,52.97
2022-10-15T01:47:43.865Z,62.70
2022-10-15T01:50:13.502Z,56.25
2022-10-15T01:52:42.222Z,53.65
2022-10-15T01:55:14.295Z,59.55
2022-10-15T01:57:44.549Z,69.60
2022-10-15T02:00:12.906Z,46.40
2022-10-15T02:02:40.067Z,56.00
2022-10-15T02:05:10.685Z,70.22
2022-10-15T02:07:48.252Z,53.13
2022-10-15T02:10:50.674Z,64.85
2022-10-15T02:13:46.715Z,53.67
2022-10-15T02:16:55.274Z,70.20
2022-10-15T02:19:44.589Z,56.38
2022-10-15T02:22:35.055Z,61.90
2022-10-15T02:25:14.662Z,43.13
2022-10-15T02:27:43.392Z,56.38
2022-10-15T02:30:11.852Z,56.28
2022-10-15T02:32:41.823Z,55.25
2022-10-15T02:35:11.801Z,46.63
2022-10-15T02:37:43.321Z,50.27
2022-10-15T02:40:10.930Z,53.30
2022-10-15T02:42:38.099Z,51.67
2022-10-15T02:45:05.499Z,47.00
2022-10-15T02:47:33.090Z,46.53
2022-10-15T02:50:00.136Z,49.90
2022-10-15T02:52:27.298Z,45.55
2022-10-15T02:54:56.665Z,54.33
2022-10-15T02:57:23.731Z,46.83
2022-10-15T02:59:50.899Z,56.17
2022-10-15T03:02:19.332Z,44.08
2022-10-15T03:04:46.828Z,59.53
2022-10-15T03:07:14.586Z,42.88
2022-10-15T03:09:41.446Z,58.75
2022-10-15T03:12:08.883Z,49.65
2022-10-15T03:14:36.046Z,52.85
2022-10-15T03:17:03.034Z,40.97
2022-10-15T03:19:30.077Z,48.22
2022-10-15T03:21:57.142Z,43.97
2022-10-15T03:24:24.134Z,44.05
2022-10-15T03:26:57.012Z,63.90
2022-10-15T03:29:24.167Z,57.10
2022-10-15T03:31:51.178Z,47.28
2022-10-15T03:34:18.523Z,42.55
2022-10-15T03:36:45.792Z,51.35
2022-10-15T03:39:19.940Z,49.55
2022-10-15T03:41:47.711Z,52.22
2022-10-15T03:44:23.721Z,47.55
2022-10-15T03:46:50.975Z,44.35
2022-10-15T03:49:30.297Z,46.45
2022-10-15T03:51:57.467Z,52.65
2022-10-15T03:54:26.919Z,48.28
2022-10-15T03:56:53.865Z,47.80
2022-10-15T03:59:24.749Z,50.00
2022-10-15T04:04:23.146Z,52.38
2022-10-15T04:06:50.079Z,53.03
2022-10-15T04:09:16.978Z,46.13
2022-10-15T04:11:43.998Z,51.58
2022-10-15T04:14:11.008Z,47.60
2022-10-15T04:16:38.086Z,51.20
2022-10-15T04:19:10.244Z,51.08
2022-10-15T04:21:41.056Z,44.88
2022-10-15T04:24:10.511Z,44.80
2022-10-15T04:26:37.932Z,47.15
2022-10-15T04:29:11.070Z,45.72
2022-10-15T04:31:38.076Z,57.08
2022-10-15T04:34:05.456Z,60.40
2022-10-15T04:36:32.397Z,50.50
2022-10-15T04:38:59.413Z,53.03
2022-10-15T04:41:26.519Z,59.25
2022-10-15T04:43:53.579Z,51.33
2022-10-15T04:46:23.096Z,59.03
2022-10-15T04:48:50.776Z,57.13
2022-10-15T04:51:20.324Z,56.30
2022-10-15T04:53:47.754Z,73.90
2022-10-15T04:56:18.310Z,51.13
2022-10-15T04:58:46.970Z,58.22
2022-10-15T05:01:19.993Z,49.53
2022-10-15T05:03:49.048Z,48.30
2022-10-15T05:06:21.825Z,49.08
2022-10-15T05:08:49.979Z,56.25
2022-10-15T05:11:20.144Z,48.75
2022-10-15T05:13:47.377Z,52.13
2022-10-15T05:16:17.372Z,45.33
2022-10-15T05:18:47.867Z,50.00
2022-10-15T05:21:15.415Z,44.58
2022-10-15T05:23:42.642Z,45.65
2022-10-15T05:26:13.923Z,43.75
2022-10-15T05:28:41.508Z,46.47
2022-10-15T05:31:16.041Z,44.65
2022-10-15T05:33:46.323Z,45.78
2022-10-15T05:36:19.851Z,47.08
2022-10-15T05:38:55.707Z,58.60
2022-10-15T05:41:26.639Z,44.67
2022-10-15T05:43:56.005Z,44.13
2022-10-15T05:46:23.712Z,53.10
2022-10-15T05:48:56.064Z,46.15
2022-10-15T05:51:24.162Z,46.40
2022-10-15T05:53:58.498Z,47.80
2022-10-15T05:56:26.157Z,54.72
2022-10-15T05:58:53.172Z,47.60
2022-10-15T06:01:20.898Z,47.58
2022-10-15T06:03:48.347Z,45.65
2022-10-15T06:06:18.045Z,51.15
2022-10-15T06:08:45.830Z,49.30
2022-10-15T06:11:13.072Z,48.97
2022-10-15T06:13:41.397Z,54.53
2022-10-15T06:16:09.672Z,48.00
2022-10-15T06:18:37.579Z,50.40
2022-10-15T06:21:06.092Z,51.08
2022-10-15T06:23:33.181Z,50.88
2022-10-15T06:26:08.358Z,51.75
2022-10-15T06:28:37.286Z,49.42
2022-10-15T06:31:05.244Z,57.13
2022-10-15T06:33:32.980Z,51.25
2022-10-15T06:36:10.910Z,54.53
2022-10-15T06:38:39.633Z,54.83
2022-10-15T06:41:08.165Z,51.30
2022-10-15T06:43:35.660Z,57.28
2022-10-15T06:46:04.730Z,51.58
2022-10-15T06:48:32.998Z,54.67
2022-10-15T06:51:01.325Z,52.83
2022-10-15T06:53:29.923Z,47.92
2022-10-15T06:56:02.032Z,49.17
2022-10-15T06:58:29.905Z,50.17
2022-10-15T07:01:02.452Z,49.25
2022-10-15T07:03:29.779Z,48.83
2022-10-15T07:05:57.056Z,46.40
2022-10-15T07:08:26.009Z,49.38
2022-10-15T07:10:52.932Z,50.53
2022-10-15T07:13:19.883Z,53.55
2022-10-15T07:15:49.883Z,46.33
2022-10-15T07:18:16.856Z,46.83
2022-10-15T07:20:43.780Z,50.47
2022-10-15T07:23:13.221Z,46.53
2022-10-15T07:25:42.400Z,46.13
2022-10-15T07:28:09.442Z,48.33
2022-10-15T07:30:36.451Z,47.83
2022-10-15T07:33:06.135Z,52.15
2022-10-15T07:35:34.399Z,48.63
2022-10-15T07:38:02.437Z,46.58
2022-10-15T07:40:29.821Z,45.85
2022-10-15T07:43:01.321Z,45.70
2022-10-15T07:45:28.843Z,41.20
2022-10-15T07:47:59.136Z,44.97
2022-10-15T07:50:29.198Z,44.05
2022-10-15T07:52:59.482Z,46.00
2022-10-15T07:55:26.450Z,42.40
2022-10-15T07:57:59.940Z,45.08
2022-10-15T08:00:27.446Z,43.03
2022-10-15T08:02:54.604Z,43.28
2022-10-15T08:05:21.567Z,42.85
2022-10-15T08:07:48.668Z,45.28
2022-10-15T08:10:16.400Z,43.17
2022-10-15T08:12:43.382Z,44.30
2022-10-15T08:15:10.884Z,42.05
2022-10-15T08:17:38.013Z,42.33
2022-10-15T08:20:05.510Z,43.10
2022-10-15T08:22:36.893Z,42.25
2022-10-15T08:25:04.654Z,45.20
2022-10-15T08:27:31.763Z,41.25
2022-10-15T08:29:58.710Z,41.30
2022-10-15T08:32:26.027Z,40.42
2022-10-15T08:34:53.093Z,41.13
2022-10-15T08:37:20.105Z,41.95
2022-10-15T08:39:47.465Z,37.67
2022-10-15T08:42:36.637Z,39.28
2022-10-15T08:45:08.360Z,37.17
2022-10-15T08:47:40.605Z,35.88
2022-10-15T08:50:18.043Z,34.67
2022-10-15T08:52:52.152Z,36.20
2022-10-15T08:55:21.448Z,35.78
2022-10-15T08:57:58.262Z,33.97
2022-10-15T09:00:31.081Z,31.38
2022-10-15T09:03:04.278Z,32.60
2022-10-15T09:05:49.081Z,31.83
2022-10-15T09:08:46.793Z,31.35
2022-10-15T09:11:16.797Z,32.33
2022-10-15T09:13:46.440Z,32.27
2022-10-15T09:16:17.877Z,30.98
2022-10-15T09:18:48.523Z,29.98
2022-10-15T09:21:16.212Z,29.00
2022-10-15T09:23:44.556Z,28.63
2022-10-15T09:26:56.859Z,27.20
2022-10-15T09:29:26.544Z,27.63
2022-10-15T09:32:15.244Z,27.08
2022-10-15T09:34:48.944Z,25.73
2022-10-15T09:37:33.228Z,25.52
2022-10-15T09:40:37.373Z,23.85
2022-10-15T09:43:06.304Z,24.63
2022-10-15T09:45:33.793Z,24.58
2022-10-15T09:48:14.286Z,25.38
2022-10-15T09:50:47.839Z,25.08
2022-10-15T09:53:27.490Z,25.15
2022-10-15T09:56:15.511Z,25.20
2022-10-15T09:58:59.294Z,25.60
2022-10-15T10:01:32.017Z,24.75
2022-10-15T10:04:11.307Z,23.83
2022-10-15T10:07:09.508Z,25.42
2022-10-15T10:09:56.828Z,24.05
2022-10-15T10:12:29.226Z,22.98
2022-10-15T10:15:02.831Z,22.20
2022-10-15T10:17:30.911Z,22.08
2022-10-15T10:20:10.340Z,22.90
2022-10-15T10:22:51.508Z,20.88
2022-10-15T10:25:33.262Z,21.25
2022-10-15T10:28:12.044Z,20.73
2022-10-15T10:31:01.239Z,19.75
2022-10-15T10:33:52.640Z,21.08
2022-10-15T10:36:34.647Z,21.23
2022-10-15T10:39:01.587Z,21.20
2022-10-15T10:41:53.659Z,21.08
2022-10-15T10:44:36.694Z,21.33
2022-10-15T10:47:08.924Z,21.05
2022-10-15T10:49:45.037Z,20.83
2022-10-15T10:52:21.188Z,22.02
2022-10-15T10:55:10.302Z,19.55
2022-10-15T10:57:45.766Z,20.75
2022-10-15T11:00:21.396Z,20.80
2022-10-15T11:02:48.996Z,20.45
2022-10-15T11:05:25.317Z,20.77
2022-10-15T11:08:29.577Z,20.63
2022-10-15T11:11:17.818Z,18.27
2022-10-15T11:13:59.061Z,18.90
2022-10-15T11:17:01.497Z,18.77
2022-10-15T11:20:05.733Z,17.35
2022-10-15T11:23:13.409Z,18.30
2022-10-15T11:26:13.648Z,16.90
2022-10-15T11:29:18.413Z,16.38
2022-10-15T11:32:02.724Z,17.13
2022-10-15T11:34:58.862Z,16.38
2022-10-15T11:37:31.455Z,16.52
2022-10-15T11:40:04.443Z,17.00
2022-10-15T11:42:37.974Z,16.17
2022-10-15T11:45:29.514Z,17.10
2022-10-15T11:48:05.798Z,16.63
2022-10-15T11:50:59.365Z,16.75
2022-10-15T11:53:35.140Z,16.25
2022-10-15T11:56:13.689Z,16.58
2022-10-15T11:58:48.295Z,17.23
2022-10-15T12:01:25.080Z,17.60
2022-10-15T12:04:18.605Z,16.25
2022-10-15T12:06:51.123Z,17.35
2022-10-15T12:09:29.315Z,17.42
2022-10-15T12:12:03.610Z,17.50
2022-10-15T12:15:08.682Z,16.63
2022-10-15T12:17:44.688Z,17.27
2022-10-15T12:20:18.263Z,17.00
2022-10-15T12:22:48.202Z,16.63
2022-10-15T12:25:33.970Z,16.77
2022-10-15T12:28:05.390Z,16.48
2022-10-15T12:30:38.043Z,16.05
2022-10-15T12:33:25.056Z,16.17
2022-10-15T12:35:57.897Z,16.10
2022-10-15T12:38:40.987Z,16.52
2022-10-15T12:41:13.253Z,17.08
2022-10-15T12:43:54.254Z,16.13
2022-10-15T12:46:21.124Z,17.33
2022-10-15T12:48:48.351Z,16.23
2022-10-15T12:51:24.479Z,15.88
2022-10-15T12:53:54.797Z,16.90
2022-10-15T12:56:24.666Z,16.75
2022-10-15T12:58:56.053Z,16.97
2022-10-15T13:01:23.012Z,16.35
2022-10-15T13:03:52.783Z,15.90
2022-10-15T13:06:22.959Z,16.45
2022-10-15T13:08:51.635Z,16.77
2022-10-15T13:11:30.359Z,18.52
2022-10-15T13:14:20.285Z,17.10
2022-10-15T13:16:48.950Z,16.92
2022-10-15T13:19:34.832Z,20.23
2022-10-15T13:22:04.102Z,18.85
2022-10-15T13:24:40.682Z,17.52
2022-10-15T13:27:30.631Z,18.30
2022-10-15T13:29:57.554Z,18.30
2022-10-15T13:32:26.820Z,17.77
2022-10-15T13:34:56.281Z,19.33
2022-10-15T13:37:36.217Z,17.63
2022-10-15T13:40:07.929Z,17.17
2022-10-15T13:42:36.008Z,18.15
2022-10-15T13:45:26.385Z,20.05
2022-10-15T13:47:55.321Z,19.38
2022-10-15T13:50:28.231Z,19.75
2022-10-15T13:53:23.384Z,20.73
2022-10-15T13:55:56.599Z,21.17
2022-10-15T13:58:29.647Z,21.48
2022-10-15T14:00:59.146Z,22.45
2022-10-15T14:03:34.057Z,21.77
2022-10-15T14:06:32.213Z,22.58
2022-10-15T14:09:01.904Z,22.75
2022-10-15T14:11:30.382Z,25.38
2022-10-15T14:13:59.275Z,24.98
2022-10-15T14:16:31.378Z,24.27
2022-10-15T14:19:12.229Z,22.58
2022-10-15T14:24:16.991Z,20.42
2022-10-15T14:26:44.798Z,21.90
2022-10-15T14:29:23.015Z,22.90
2022-10-15T14:31:50.202Z,21.65
2022-10-15T14:34:40.270Z,21.02
2022-10-15T14:37:43.086Z,21.47
2022-10-15T14:40:10.268Z,19.95
2022-10-15T14:42:42.550Z,22.02
2022-10-15T14:45:12.458Z,25.25
2022-10-15T14:47:39.914Z,24.23
2022-10-15T14:50:07.437Z,22.13
2022-10-15T14:52:37.654Z,22.20
2022-10-15T14:55:31.998Z,20.10
2022-10-15T14:58:01.818Z,28.42
2022-10-15T15:00:34.607Z,24.95
2022-10-15T15:03:07.179Z,26.02
2022-10-15T15:05:48.435Z,27.73
2022-10-15T15:08:16.052Z,26.70
2022-10-15T15:10:44.718Z,31.25
2022-10-15T15:13:20.206Z,35.35
2022-10-15T15:15:47.626Z,30.67
2022-10-15T15:18:14.684Z,27.70
2022-10-15T15:20:44.046Z,26.70
2022-10-15T15:23:18.058Z,26.00
2022-10-15T15:25:45.116Z,23.92
2022-10-15T15:28:20.130Z,23.98
2022-10-15T15:30:55.536Z,24.02
2022-10-15T15:33:22.525Z,25.75
2022-10-15T15:36:00.497Z,26.55
2022-10-15T15:38:31.608Z,27.73
2022-10-15T15:41:12.530Z,27.08
2022-10-15T15:46:06.998Z,27.50
2022-10-15T15:48:34.117Z,28.00
2022-10-15T15:51:07.070Z,27.45
2022-10-15T15:53:35.591Z,24.80
2022-10-15T15:56:02.654Z,23.67
2022-10-15T15:58:30.057Z,23.33
2022-10-15T16:00:57.160Z,23.90
2022-10-15T16:03:24.184Z,25.20
2022-10-15T16:08:38.994Z,22.25
2022-10-15T16:11:07.569Z,24.92
2022-10-15T16:13:35.324Z,24.85
2022-10-15T16:16:02.695Z,23.40
2022-10-15T16:18:30.111Z,24.05
2022-10-15T16:20:57.213Z,24.17
2022-10-15T16:23:24.257Z,23.13
2022-10-15T16:25:51.221Z,23.83
2022-10-15T16:28:21.262Z,24.25
2022-10-15T16:30:48.210Z,25.60
2022-10-15T16:33:18.023Z,24.95
2022-10-15T16:35:45.005Z,25.27
2022-10-15T16:38:11.929Z,27.80
2022-10-15T16:40:39.313Z,29.98
2022-10-15T16:43:06.264Z,27.88
2022-10-15T16:45:33.793Z,28.50
2022-10-15T16:48:00.748Z,28.23
2022-10-15T16:50:27.735Z,25.90
2022-10-15T16:52:54.857Z,25.83
2022-10-15T16:55:21.784Z,27.73
2022-10-15T16:57:48.746Z,26.30
2022-10-15T17:00:15.731Z,28.00
2022-10-15T17:02:42.692Z,26.30
2022-10-15T17:05:09.880Z,26.75
2022-10-15T17:07:36.818Z,27.60
2022-10-15T17:10:04.567Z,28.33
2022-10-15T17:12:31.543Z,29.08
2022-10-15T17:14:58.479Z,28.92
2022-10-15T17:17:25.622Z,28.48
2022-10-15T17:19:52.696Z,29.85
2022-10-15T17:22:21.430Z,28.83
2022-10-15T17:24:49.887Z,29.52
2022-10-15T17:27:18.124Z,29.38
2022-10-15T17:29:45.593Z,30.00
2022-10-15T17:32:12.540Z,29.38
2022-10-15T17:34:39.481Z,31.35
2022-10-15T17:37:06.456Z,26.63
2022-10-15T17:39:33.845Z,28.77
2022-10-15T17:42:00.754Z,27.63
2022-10-15T17:44:27.869Z,27.95
2022-10-15T17:46:54.809Z,29.90
2022-10-15T17:49:21.767Z,31.40
2022-10-15T17:51:48.964Z,33.38
2022-10-15T17:54:16.214Z,32.88
2022-10-15T17:56:43.412Z,30.67
2022-10-15T17:59:12.616Z,29.77
2022-10-15T18:01:58.897Z,29.98
2022-10-15T18:04:28.474Z,28.95
2022-10-15T18:06:55.484Z,29.58
2022-10-15T18:09:22.430Z,31.73
2022-10-15T18:11:49.561Z,34.08
2022-10-15T18:14:16.608Z,34.35
2022-10-15T18:16:44.353Z,33.90
2022-10-15T18:19:11.497Z,32.50
2022-10-15T18:21:38.674Z,36.75
2022-10-15T18:24:06.027Z,34.67
2022-10-15T18:26:33.013Z,34.55
2022-10-15T18:29:00.057Z,31.95
2022-10-15T18:31:27.157Z,29.58
2022-10-15T18:33:56.145Z,30.83
2022-10-15T18:36:25.073Z,29.08
2022-10-15T18:38:55.674Z,27.23
2022-10-15T18:41:28.765Z,29.42
2022-10-15T18:44:03.754Z,29.00
2022-10-15T18:46:31.501Z,31.00
2022-10-15T18:48:58.929Z,29.17
2022-10-15T18:51:26.310Z,30.30
2022-10-15T18:53:53.658Z,30.50
2022-10-15T18:56:22.071Z,30.83
2022-10-15T18:58:50.287Z,28.75
2022-10-15T19:01:37.503Z,29.48
2022-10-15T19:04:07.610Z,33.53
2022-10-15T19:06:38.328Z,45.60
2022-10-15T19:09:07.290Z,56.55
2022-10-15T19:11:35.746Z,59.20
2022-10-15T19:14:03.198Z,60.35
2022-10-15T19:16:30.356Z,48.08
2022-10-15T19:18:57.491Z,35.25
2022-10-15T19:21:25.142Z,36.72
2022-10-15T19:23:52.145Z,36.72
2022-10-15T19:26:19.295Z,35.58
2022-10-15T19:28:47.319Z,37.60
2022-10-15T19:31:24.774Z,31.58
2022-10-15T19:33:51.932Z,30.23
2022-10-15T19:36:24.676Z,30.98
2022-10-15T19:38:51.813Z,29.50
2022-10-15T19:41:19.590Z,29.70
2022-10-15T19:43:46.847Z,26.88
2022-10-15T19:46:14.820Z,26.55
2022-10-15T19:48:42.244Z,25.58
2022-10-15T19:51:09.482Z,28.10
2022-10-15T19:53:36.743Z,25.25
2022-10-15T19:56:10.437Z,29.90
2022-10-15T19:58:39.470Z,27.38
2022-10-15T20:01:06.436Z,26.15
2022-10-15T20:03:37.263Z,25.83
2022-10-15T20:08:33.961Z,27.55
2022-10-15T20:11:00.878Z,25.02
2022-10-15T20:13:27.818Z,25.63
2022-10-15T20:15:54.950Z,23.85
2022-10-15T20:18:22.432Z,25.52
2022-10-15T20:20:49.468Z,26.77
2022-10-15T20:23:18.011Z,26.25
2022-10-15T20:25:45.992Z,26.25
2022-10-15T20:28:15.074Z,25.70
2022-10-15T20:30:42.369Z,24.55
2022-10-15T20:33:10.639Z,23.33
2022-10-15T20:35:38.867Z,24.88
2022-10-15T20:38:07.315Z,24.48
2022-10-15T20:40:35.496Z,25.70
2022-10-15T20:43:02.485Z,23.52
2022-10-15T20:45:38.620Z,23.70
2022-10-15T20:48:07.799Z,25.88
2022-10-15T20:50:36.224Z,25.00
2022-10-15T20:53:03.694Z,23.92
2022-10-15T20:55:31.179Z,24.52
2022-10-15T20:57:58.233Z,23.20
2022-10-15T21:00:25.178Z,25.80
2022-10-15T21:02:52.188Z,23.55
2022-10-15T21:05:19.152Z,24.02
2022-10-15T21:07:46.129Z,25.70
2022-10-15T21:10:13.187Z,24.60
2022-10-15T21:12:40.158Z,23.92
2022-10-15T21:15:07.792Z,24.85
2022-10-15T21:17:34.916Z,24.27
2022-10-15T21:20:02.025Z,25.05
2022-10-15T21:22:28.970Z,24.45
2022-10-15T21:24:55.922Z,25.15
2022-10-15T21:27:23.145Z,25.05
2022-10-15T21:29:50.339Z,24.10
2022-10-15T21:32:17.484Z,23.50
2022-10-15T21:34:44.721Z,24.15
2022-10-15T21:37:11.970Z,23.67
2022-10-15T21:39:38.971Z,25.42
2022-10-15T21:42:06.042Z,24.60
2022-10-15T21:44:33.851Z,25.83
2022-10-15T21:47:00.849Z,26.40
2022-10-15T21:49:27.833Z,26.00
2022-10-15T21:51:55.016Z,25.08
2022-10-15T21:54:21.959Z,25.10
2022-10-15T21:56:48.880Z,25.60
2022-10-15T21:59:16.061Z,26.20
2022-10-15T22:01:43.109Z,24.40
2022-10-15T22:04:11.233Z,25.20
2022-10-15T22:06:40.523Z,25.88
2022-10-15T22:09:08.520Z,25.77
2022-10-15T22:11:37.932Z,25.40
2022-10-15T22:14:07.714Z,23.45
2022-10-15T22:16:36.904Z,25.90
2022-10-15T22:19:05.107Z,25.40
2022-10-15T22:21:36.665Z,25.48
2022-10-15T22:24:13.906Z,25.90
2022-10-15T22:26:44.413Z,24.02
2022-10-15T22:29:26.449Z,25.60
2022-10-15T22:31:54.312Z,23.13
2022-10-15T22:34:22.663Z,24.02
2022-10-15T22:36:51.298Z,25.70
2022-10-15T22:39:19.412Z,24.55
2022-10-15T22:41:47.621Z,26.95
2022-10-15T22:44:20.330Z,29.70
2022-10-15T22:46:49.919Z,30.02
2022-10-15T22:49:22.529Z,30.27
2022-10-15T22:51:50.770Z,30.67
2022-10-15T22:54:19.267Z,26.48
2022-10-15T22:56:47.605Z,24.55
2022-10-15T22:59:15.756Z,24.50
2022-10-15T23:01:43.069Z,24.05
2022-10-15T23:04:12.899Z,23.75
2022-10-15T23:06:39.897Z,23.98
2022-10-15T23:09:08.509Z,24.65
2022-10-15T23:11:38.291Z,24.92
2022-10-15T23:14:08.554Z,24.00
2022-10-15T23:16:38.199Z,24.40
2022-10-15T23:19:08.147Z,23.27
2022-10-15T23:21:42.397Z,22.80
2022-10-15T23:24:09.761Z,24.30
2022-10-15T23:26:38.234Z,23.42
2022-10-15T23:29:07.652Z,22.00
2022-10-15T23:31:36.252Z,22.77
2022-10-15T23:34:04.846Z,21.50
2022-10-15T23:36:33.337Z,22.27
2022-10-15T23:39:04.071Z,21.60
2022-10-15T23:43:58.802Z,19.95
2022-10-15T23:46:26.155Z,21.45
2022-10-15T23:48:53.065Z,23.85
2022-10-15T23:51:23.050Z,22.33
2022-10-15T23:53:50.707Z,22.30
2022-10-15T23:56:18.479Z,21.98
2022-10-15T23:58:53.832Z,23.08
